createdAt,value
2017-10-28T00:00:05.796Z,85.08
2017-10-28T00:01:05.768Z,84.88
2017-10-28T00:02:05.754Z,85.08
2017-10-28T00:03:05.743Z,85.17
2017-10-28T00:04:05.870Z,85.08
2017-10-28T00:05:05.713Z,84.98
2017-10-28T00:06:05.709Z,85.46
2017-10-28T00:07:05.707Z,85.74
2017-10-28T00:08:05.685Z,85.55
2017-10-28T00:09:05.680Z,85.08
2017-10-28T00:10:05.713Z,84.98
2017-10-28T00:11:05.637Z,85.08
2017-10-28T00:12:05.623Z,84.79
2017-10-28T00:13:05.599Z,84.79
2017-10-28T00:14:05.581Z,85.17
2017-10-28T00:15:05.577Z,85.08
2017-10-28T00:16:05.716Z,85.08
2017-10-28T00:17:05.539Z,84.98
2017-10-28T00:18:05.532Z,84.88
2017-10-28T00:19:05.524Z,85.17
2017-10-28T00:20:05.494Z,85.17
2017-10-28T00:21:05.493Z,84.98
2017-10-28T00:22:05.902Z,85.17
2017-10-28T00:23:05.491Z,84.88
2017-10-28T00:24:05.450Z,84.88
2017-10-28T00:25:05.448Z,85.17
2017-10-28T00:26:05.412Z,85.08
2017-10-28T00:27:05.414Z,84.79
2017-10-28T00:28:05.440Z,84.88
2017-10-28T00:29:05.377Z,85.64
2017-10-28T00:30:05.358Z,85.17
2017-10-28T00:31:05.354Z,85.08
2017-10-28T00:32:05.325Z,85.17
2017-10-28T00:33:05.319Z,85.08
2017-10-28T00:34:05.349Z,85.46
2017-10-28T00:35:05.280Z,85.74
2017-10-28T00:36:05.272Z,85.46
2017-10-28T00:37:05.258Z,84.79
2017-10-28T00:38:05.249Z,85.55
2017-10-28T00:39:05.242Z,85.27
2017-10-28T00:40:05.300Z,85.74
2017-10-28T00:41:05.209Z,85.27
2017-10-28T00:42:05.185Z,85.08
2017-10-28T00:43:05.173Z,84.98
2017-10-28T00:44:05.147Z,85.46
2017-10-28T00:45:05.145Z,85.36
2017-10-28T00:46:05.200Z,85.08
2017-10-28T00:47:05.111Z,84.79
2017-10-28T00:48:05.102Z,84.79
2017-10-28T00:49:05.101Z,85.08
2017-10-28T00:50:05.065Z,85.08
2017-10-28T00:51:05.061Z,84.98
2017-10-28T00:52:05.119Z,84.98
2017-10-28T00:53:05.038Z,85.27
2017-10-28T00:54:05.007Z,84.98
2017-10-28T00:55:04.992Z,84.98
2017-10-28T00:56:04.988Z,84.69
2017-10-28T00:57:04.966Z,84.79
2017-10-28T00:58:05.315Z,85.36
2017-10-28T00:59:04.945Z,84.98
2017-10-28T01:00:04.916Z,84.50
2017-10-28T01:01:04.916Z,84.88
2017-10-28T01:02:04.896Z,84.69
2017-10-28T01:03:04.875Z,84.98
2017-10-28T01:04:05.013Z,84.88
2017-10-28T01:05:04.845Z,84.88
2017-10-28T01:06:04.835Z,84.79
2017-10-28T01:07:04.833Z,84.79
2017-10-28T01:08:04.817Z,84.50
2017-10-28T01:09:04.793Z,84.88
2017-10-28T01:10:04.836Z,85.08
2017-10-28T01:11:04.759Z,84.50
2017-10-28T01:12:04.756Z,85.17
2017-10-28T01:13:04.744Z,85.74
2017-10-28T01:14:04.714Z,85.46
2017-10-28T01:15:04.699Z,85.27
2017-10-28T01:16:04.753Z,84.79
2017-10-28T01:17:04.683Z,85.17
2017-10-28T01:18:04.657Z,85.17
2017-10-28T01:19:04.659Z,85.08
2017-10-28T01:20:04.642Z,85.55
2017-10-28T01:21:04.617Z,85.55
2017-10-28T01:22:04.752Z,85.84
2017-10-28T01:23:04.602Z,85.84
2017-10-28T01:24:04.571Z,85.36
2017-10-28T01:25:04.557Z,85.84
2017-10-28T01:26:04.543Z,85.36
2017-10-28T01:27:04.527Z,85.36
2017-10-28T01:28:04.593Z,85.46
2017-10-28T01:29:04.515Z,85.08
2017-10-28T01:30:04.484Z,85.08
2017-10-28T01:31:04.484Z,85.36
2017-10-28T01:32:04.455Z,85.55
2017-10-28T01:33:04.441Z,85.13
2017-10-28T01:34:04.576Z,85.64
2017-10-28T01:35:04.410Z,86.03
2017-10-28T01:36:04.407Z,85.46
2017-10-28T01:37:04.393Z,85.46
2017-10-28T01:38:04.384Z,85.46
2017-10-28T01:39:04.365Z,85.41
2017-10-28T01:40:04.755Z,85.74
2017-10-28T01:41:04.323Z,85.32
2017-10-28T01:42:04.319Z,85.41
2017-10-28T01:43:04.295Z,85.41
2017-10-28T01:44:04.293Z,85.64
2017-10-28T01:45:04.270Z,85.41
2017-10-28T01:46:04.412Z,85.60
2017-10-28T01:47:04.241Z,85.84
2017-10-28T01:48:04.230Z,85.60
2017-10-28T01:49:04.229Z,85.22
2017-10-28T01:50:04.199Z,85.60
2017-10-28T01:51:04.205Z,85.55
2017-10-28T01:52:04.338Z,85.46
2017-10-28T01:53:04.152Z,84.98
2017-10-28T01:54:04.145Z,85.08
2017-10-28T01:55:04.131Z,85.08
2017-10-28T01:56:04.120Z,84.79
2017-10-28T01:57:04.089Z,85.46
2017-10-28T01:58:04.119Z,85.27
2017-10-28T01:59:04.087Z,85.41
2017-10-28T02:00:04.063Z,85.80
2017-10-28T02:01:04.033Z,85.60
2017-10-28T02:02:04.039Z,85.41
2017-10-28T02:03:04.156Z,85.70
2017-10-28T02:04:04.020Z,84.84
2017-10-28T02:05:03.984Z,84.94
2017-10-28T02:06:03.974Z,85.51
2017-10-28T02:07:03.948Z,84.75
2017-10-28T02:08:03.932Z,85.70
2017-10-28T02:09:03.982Z,85.51
2017-10-28T02:10:03.908Z,85.60
2017-10-28T02:11:03.897Z,85.41
2017-10-28T02:12:03.870Z,85.03
2017-10-28T02:13:03.871Z,85.55
2017-10-28T02:14:03.843Z,85.03
2017-10-28T02:15:03.901Z,84.94
2017-10-28T02:16:03.814Z,85.41
2017-10-28T02:17:03.809Z,85.80
2017-10-28T02:18:03.794Z,85.51
2017-10-28T02:19:03.779Z,84.84
2017-10-28T02:20:03.763Z,85.03
2017-10-28T02:21:03.769Z,85.51
2017-10-28T02:22:03.741Z,85.55
2017-10-28T02:23:03.723Z,84.94
2017-10-28T02:24:03.709Z,84.60
2017-10-28T02:25:03.693Z,84.84
2017-10-28T02:26:03.809Z,84.65
2017-10-28T02:27:03.673Z,84.84
2017-10-28T02:28:03.647Z,84.84
2017-10-28T02:29:03.635Z,84.75
2017-10-28T02:30:03.613Z,84.65
2017-10-28T02:31:03.591Z,84.94
2017-10-28T02:32:04.028Z,85.51
2017-10-28T02:33:03.571Z,85.46
2017-10-28T02:34:03.563Z,85.51
2017-10-28T02:35:03.540Z,85.03
2017-10-28T02:36:03.519Z,84.84
2017-10-28T02:37:03.518Z,84.56
2017-10-28T02:38:03.630Z,85.08
2017-10-28T02:39:03.487Z,84.98
2017-10-28T02:40:03.460Z,85.32
2017-10-28T02:41:03.467Z,84.60
2017-10-28T02:42:03.455Z,84.79
2017-10-28T02:43:03.418Z,84.84
2017-10-28T02:44:03.463Z,85.08
2017-10-28T02:45:03.387Z,85.36
2017-10-28T02:46:03.376Z,85.03
2017-10-28T02:47:03.360Z,84.94
2017-10-28T02:48:03.357Z,84.79
2017-10-28T02:49:03.331Z,84.84
2017-10-28T02:50:03.387Z,85.13
2017-10-28T02:51:03.363Z,84.31
2017-10-28T02:52:03.311Z,84.88
2017-10-28T02:53:03.286Z,84.31
2017-10-28T02:54:03.258Z,84.79
2017-10-28T02:55:03.245Z,84.41
2017-10-28T02:56:03.236Z,84.08
2017-10-28T02:57:03.365Z,84.27
2017-10-28T02:58:03.207Z,84.27
2017-10-28T02:59:03.188Z,84.17
2017-10-28T03:00:03.183Z,84.79
2017-10-28T03:01:03.153Z,84.17
2017-10-28T03:02:03.142Z,84.17
2017-10-28T03:03:03.283Z,84.27
2017-10-28T03:04:03.105Z,83.89
2017-10-28T03:05:03.096Z,83.55
2017-10-28T03:06:03.083Z,83.51
2017-10-28T03:07:03.081Z,83.80
2017-10-28T03:08:03.067Z,83.65
2017-10-28T03:09:03.066Z,83.07
2017-10-28T03:10:03.020Z,83.13
2017-10-28T03:11:03.057Z,83.61
2017-10-28T03:12:03.003Z,83.61
2017-10-28T03:13:02.982Z,83.61
2017-10-28T03:14:02.975Z,83.65
2017-10-28T03:15:02.956Z,83.07
2017-10-28T03:16:02.973Z,83.70
2017-10-28T03:17:02.932Z,82.75
2017-10-28T03:18:02.906Z,82.65
2017-10-28T03:19:02.910Z,83.13
2017-10-28T03:20:02.886Z,83.07
2017-10-28T03:21:03.013Z,82.46
2017-10-28T03:22:02.848Z,82.21
2017-10-28T03:23:02.849Z,81.84
2017-10-28T03:24:02.830Z,83.03
2017-10-28T03:25:02.821Z,82.60
2017-10-28T03:26:02.808Z,82.27
2017-10-28T03:27:02.806Z,82.21
2017-10-28T03:28:02.762Z,82.65
2017-10-28T03:29:02.761Z,82.79
2017-10-28T03:30:02.729Z,82.50
2017-10-28T03:31:03.070Z,82.79
2017-10-28T03:32:02.699Z,82.18
2017-10-28T03:33:02.694Z,82.31
2017-10-28T03:34:02.687Z,82.03
2017-10-28T03:35:02.667Z,82.56
2017-10-28T03:36:02.645Z,81.70
2017-10-28T03:37:02.714Z,82.31
2017-10-28T03:38:02.622Z,81.74
2017-10-28T03:39:02.634Z,81.74
2017-10-28T03:40:02.583Z,81.89
2017-10-28T03:41:02.572Z,81.70
2017-10-28T03:42:02.555Z,82.27
2017-10-28T03:43:02.704Z,81.89
2017-10-28T03:44:02.528Z,81.84
2017-10-28T03:45:02.514Z,81.60
2017-10-28T03:46:02.498Z,81.70
2017-10-28T03:47:02.495Z,81.89
2017-10-28T03:48:02.479Z,81.89
2017-10-28T03:49:02.492Z,81.55
2017-10-28T03:50:02.455Z,81.32
2017-10-28T03:51:02.429Z,81.84
2017-10-28T03:52:02.471Z,81.41
2017-10-28T03:53:02.403Z,82.08
2017-10-28T03:54:02.389Z,81.89
2017-10-28T03:55:02.378Z,81.74
2017-10-28T03:56:02.368Z,81.89
2017-10-28T03:57:02.347Z,81.46
2017-10-28T03:58:02.456Z,82.46
2017-10-28T03:59:02.330Z,82.56
2017-10-28T04:00:02.307Z,81.89
2017-10-28T04:01:02.289Z,82.08
2017-10-28T04:02:02.269Z,82.27
2017-10-28T04:03:02.254Z,82.18
2017-10-28T04:04:02.304Z,82.75
2017-10-28T04:05:02.223Z,82.08
2017-10-28T04:06:02.215Z,81.89
2017-10-28T04:07:02.198Z,82.27
2017-10-28T04:08:02.175Z,82.27
2017-10-28T04:09:02.162Z,82.18
2017-10-28T04:10:02.222Z,82.46
2017-10-28T04:11:02.127Z,82.46
2017-10-28T04:12:02.133Z,82.08
2017-10-28T04:13:02.112Z,82.75
2017-10-28T04:14:02.104Z,82.65
2017-10-28T04:15:02.084Z,82.37
2017-10-28T04:16:02.119Z,82.84
2017-10-28T04:17:02.051Z,82.27
2017-10-28T04:18:02.029Z,82.46
2017-10-28T04:19:02.028Z,82.18
2017-10-28T04:20:02.001Z,82.18
2017-10-28T04:21:01.995Z,82.37
2017-10-28T04:22:02.290Z,82.27
2017-10-28T04:23:01.970Z,82.27
2017-10-28T04:24:01.940Z,82.46
2017-10-28T04:25:01.938Z,82.18
2017-10-28T04:26:01.911Z,82.75
2017-10-28T04:27:01.898Z,82.75
2017-10-28T04:28:02.218Z,82.27
2017-10-28T04:29:01.880Z,82.46
2017-10-28T04:30:01.860Z,82.56
2017-10-28T04:31:01.839Z,82.65
2017-10-28T04:32:01.824Z,82.65
2017-10-28T04:33:01.825Z,82.75
2017-10-28T04:34:01.861Z,83.13
2017-10-28T04:35:01.789Z,82.46
2017-10-28T04:36:01.773Z,82.65
2017-10-28T04:37:01.747Z,82.65
2017-10-28T04:38:01.735Z,82.56
2017-10-28T04:39:01.730Z,82.65
2017-10-28T04:40:01.790Z,82.46
2017-10-28T04:41:01.695Z,82.93
2017-10-28T04:42:01.689Z,83.22
2017-10-28T04:43:01.675Z,82.75
2017-10-28T04:44:01.657Z,83.22
2017-10-28T04:45:01.647Z,82.75
2017-10-28T04:46:01.651Z,82.84
2017-10-28T04:47:01.604Z,82.65
2017-10-28T04:48:01.598Z,82.84
2017-10-28T04:49:01.571Z,83.03
2017-10-28T04:50:01.624Z,82.65
2017-10-28T04:51:01.546Z,82.65
2017-10-28T04:52:01.549Z,82.65
2017-10-28T04:53:01.522Z,83.13
2017-10-28T04:54:01.520Z,82.65
2017-10-28T04:55:01.504Z,82.84
2017-10-28T04:56:01.549Z,82.93
2017-10-28T04:57:01.470Z,82.56
2017-10-28T04:58:01.455Z,82.46
2017-10-28T04:59:01.439Z,82.27
2017-10-28T05:00:01.421Z,82.65
2017-10-28T05:01:01.410Z,82.65
2017-10-28T05:02:01.452Z,82.65
2017-10-28T05:03:01.392Z,83.22
2017-10-28T05:04:01.362Z,82.56
2017-10-28T05:05:01.351Z,82.46
2017-10-28T05:06:01.324Z,82.84
2017-10-28T05:07:01.321Z,82.46
2017-10-28T05:08:01.725Z,82.84
2017-10-28T05:09:01.289Z,82.37
2017-10-28T05:10:01.273Z,83.22
2017-10-28T05:11:01.271Z,82.84
2017-10-28T05:12:01.246Z,83.03
2017-10-28T05:13:01.235Z,83.03
2017-10-28T05:14:01.254Z,83.22
2017-10-28T05:15:01.191Z,82.84
2017-10-28T05:16:01.188Z,83.03
2017-10-28T05:17:01.179Z,83.41
2017-10-28T05:18:01.147Z,83.41
2017-10-28T05:19:01.204Z,83.32
2017-10-28T05:20:01.122Z,83.61
2017-10-28T05:21:01.111Z,83.41
2017-10-28T05:22:01.086Z,83.80
2017-10-28T05:23:01.083Z,83.61
2017-10-28T05:24:01.066Z,83.61
2017-10-28T05:25:01.482Z,83.70
2017-10-28T05:26:01.037Z,83.80
2017-10-28T05:27:01.034Z,83.32
2017-10-28T05:28:01.001Z,83.61
2017-10-28T05:29:00.986Z,83.80
2017-10-28T05:30:00.981Z,83.80
2017-10-28T05:31:00.982Z,83.61
2017-10-28T05:32:00.951Z,83.70
2017-10-28T05:33:00.940Z,83.32
2017-10-28T05:34:00.943Z,83.32
2017-10-28T05:35:00.905Z,83.22
2017-10-28T05:36:00.882Z,83.51
2017-10-28T05:37:00.867Z,83.61
2017-10-28T05:38:00.861Z,83.70
2017-10-28T05:39:00.913Z,83.32
2017-10-28T05:40:00.840Z,83.61
2017-10-28T05:41:00.806Z,83.61
2017-10-28T05:42:00.812Z,83.80
2017-10-28T05:43:00.793Z,83.61
2017-10-28T05:44:00.761Z,83.22
2017-10-28T05:45:00.896Z,83.32
2017-10-28T05:46:00.739Z,83.61
2017-10-28T05:47:00.743Z,83.41
2017-10-28T05:48:00.702Z,83.70
2017-10-28T05:49:00.708Z,83.70
2017-10-28T05:50:00.689Z,83.61
2017-10-28T05:51:00.695Z,83.32
2017-10-28T05:52:00.656Z,83.80
2017-10-28T05:53:00.638Z,83.61
2017-10-28T05:54:00.696Z,83.51
2017-10-28T05:55:00.600Z,83.80
2017-10-28T05:56:00.598Z,83.98
2017-10-28T05:57:00.572Z,84.17
2017-10-28T05:58:00.557Z,84.08
2017-10-28T05:59:00.558Z,83.61
2017-10-28T06:00:00.582Z,83.22
2017-10-28T06:01:00.529Z,83.61
2017-10-28T06:02:00.507Z,84.27
2017-10-28T06:03:00.495Z,83.70
2017-10-28T06:04:00.485Z,83.70
2017-10-28T06:05:00.460Z,83.51
2017-10-28T06:06:00.573Z,83.61
2017-10-28T06:07:00.437Z,83.61
2017-10-28T06:08:00.421Z,83.70
2017-10-28T06:09:00.392Z,83.61
2017-10-28T06:10:00.378Z,83.51
2017-10-28T06:11:00.388Z,83.98
2017-10-28T06:12:00.799Z,84.17
2017-10-28T06:13:00.334Z,84.27
2017-10-28T06:14:00.338Z,84.27
2017-10-28T06:15:00.321Z,84.08
2017-10-28T06:16:00.316Z,83.80
2017-10-28T06:17:00.293Z,83.98
2017-10-28T06:18:00.303Z,83.98
2017-10-28T06:19:00.257Z,83.80
2017-10-28T06:20:00.308Z,83.70
2017-10-28T06:21:00.226Z,84.36
2017-10-28T06:22:00.203Z,84.46
2017-10-28T06:23:00.191Z,84.36
2017-10-28T06:24:00.172Z,84.17
2017-10-28T06:25:00.173Z,84.08
2017-10-28T06:26:00.197Z,83.98
2017-10-28T06:27:00.131Z,85.03
2017-10-28T06:28:00.120Z,84.17
2017-10-28T06:29:00.100Z,84.08
2017-10-28T06:30:00.101Z,84.46
2017-10-28T06:31:00.078Z,83.89
2017-10-28T06:32:00.204Z,84.46
2017-10-28T06:33:00.039Z,84.46
2017-10-28T06:34:00.026Z,84.17
2017-10-28T06:35:00.015Z,83.51
2017-10-28T06:36:00.022Z,83.80
2017-10-28T06:36:59.978Z,83.70
2017-10-28T06:38:00.041Z,83.51
2017-10-28T06:38:59.962Z,83.61
2017-10-28T06:39:59.949Z,83.51
2017-10-28T06:40:59.938Z,83.61
2017-10-28T06:41:59.906Z,83.22
2017-10-28T06:42:59.910Z,83.51
2017-10-28T06:43:59.941Z,83.51
2017-10-28T06:44:59.879Z,83.41
2017-10-28T06:45:59.866Z,83.61
2017-10-28T06:46:59.843Z,82.46
2017-10-28T06:47:59.829Z,83.32
2017-10-28T06:48:59.806Z,83.03
2017-10-28T06:49:59.858Z,82.93
2017-10-28T06:50:59.788Z,83.13
2017-10-28T06:51:59.756Z,82.84
2017-10-28T06:52:59.753Z,83.03
2017-10-28T06:53:59.739Z,82.93
2017-10-28T06:54:59.726Z,83.13
2017-10-28T06:55:59.762Z,82.75
2017-10-28T06:56:59.697Z,83.13
2017-10-28T06:57:59.670Z,83.13
2017-10-28T06:58:59.666Z,82.84
2017-10-28T06:59:59.669Z,83.03
2017-10-28T07:00:59.642Z,83.26
2017-10-28T07:01:59.683Z,83.03
2017-10-28T07:02:59.597Z,82.65
2017-10-28T07:03:59.586Z,82.46
2017-10-28T07:04:59.570Z,82.84
2017-10-28T07:05:59.552Z,82.65
2017-10-28T07:06:59.546Z,82.75
2017-10-28T07:07:59.590Z,82.69
2017-10-28T07:08:59.518Z,82.69
2017-10-28T07:09:59.506Z,82.89
2017-10-28T07:10:59.494Z,82.08
2017-10-28T07:11:59.467Z,82.37
2017-10-28T07:12:59.473Z,82.18
2017-10-28T07:13:59.508Z,82.84
2017-10-28T07:14:59.433Z,82.69
2017-10-28T07:15:59.404Z,82.98
2017-10-28T07:16:59.404Z,82.60
2017-10-28T07:17:59.511Z,82.84
2017-10-28T07:18:59.368Z,82.31
2017-10-28T07:19:59.822Z,82.31
2017-10-28T07:20:59.342Z,82.31
2017-10-28T07:21:59.324Z,82.12
2017-10-28T07:22:59.313Z,82.21
2017-10-28T07:23:59.300Z,82.08
2017-10-28T07:24:59.279Z,82.03
2017-10-28T07:25:59.696Z,82.31
2017-10-28T07:26:59.264Z,82.03
2017-10-28T07:27:59.242Z,82.31
2017-10-28T07:28:59.223Z,82.12
2017-10-28T07:29:59.218Z,81.93
2017-10-28T07:30:59.209Z,82.21
2017-10-28T07:31:59.240Z,82.27
2017-10-28T07:32:59.171Z,82.31
2017-10-28T07:33:59.159Z,82.08
2017-10-28T07:34:59.135Z,82.03
2017-10-28T07:35:59.128Z,82.08
2017-10-28T07:36:59.104Z,82.12
2017-10-28T07:37:59.288Z,82.50
2017-10-28T07:38:59.074Z,81.65
2017-10-28T07:39:59.059Z,81.74
2017-10-28T07:40:59.042Z,81.74
2017-10-28T07:41:59.028Z,82.50
2017-10-28T07:42:59.060Z,82.69
2017-10-28T07:43:59.062Z,82.65
2017-10-28T07:44:58.991Z,82.37
2017-10-28T07:45:58.969Z,82.50
2017-10-28T07:46:58.966Z,82.89
2017-10-28T07:47:58.937Z,82.41
2017-10-28T07:48:58.944Z,82.60
2017-10-28T07:49:59.065Z,82.84
2017-10-28T07:50:58.929Z,82.31
2017-10-28T07:51:58.879Z,82.75
2017-10-28T07:52:58.875Z,82.65
2017-10-28T07:53:58.866Z,83.07
2017-10-28T07:54:58.842Z,82.65
2017-10-28T07:55:59.274Z,83.17
2017-10-28T07:56:58.808Z,82.50
2017-10-28T07:57:58.796Z,82.75
2017-10-28T07:58:58.780Z,82.65
2017-10-28T07:59:58.774Z,82.69
2017-10-28T08:00:58.757Z,83.17
2017-10-28T08:01:58.810Z,82.79
2017-10-28T08:02:58.728Z,82.69
2017-10-28T08:03:58.719Z,81.93
2017-10-28T08:04:58.703Z,82.60
2017-10-28T08:05:58.688Z,81.74
2017-10-28T08:06:58.661Z,81.74
2017-10-28T08:07:58.805Z,81.93
2017-10-28T08:08:58.629Z,81.74
2017-10-28T08:09:58.631Z,81.55
2017-10-28T08:10:58.601Z,81.65
2017-10-28T08:11:58.601Z,81.74
2017-10-28T08:12:58.591Z,81.84
2017-10-28T08:13:58.808Z,81.55
2017-10-28T08:14:58.567Z,81.74
2017-10-28T08:15:58.546Z,82.12
2017-10-28T08:16:58.516Z,82.12
2017-10-28T08:17:58.505Z,81.84
2017-10-28T08:18:58.503Z,81.65
2017-10-28T08:19:59.064Z,81.65
2017-10-28T08:20:58.573Z,81.74
2017-10-28T08:21:58.466Z,82.12
2017-10-28T08:22:58.431Z,82.12
2017-10-28T08:23:58.424Z,82.08
2017-10-28T08:24:58.409Z,82.60
2017-10-28T08:25:58.446Z,81.84
2017-10-28T08:26:58.382Z,82.08
2017-10-28T08:27:59.167Z,82.21
2017-10-28T08:28:59.017Z,82.21
2017-10-28T08:29:58.477Z,82.21
2017-10-28T08:30:58.530Z,81.74
2017-10-28T08:31:58.384Z,81.36
2017-10-28T08:32:58.381Z,81.55
2017-10-28T08:33:58.524Z,82.12
2017-10-28T08:34:58.488Z,81.36
2017-10-28T08:36:00.419Z,81.74
2017-10-28T08:36:58.480Z,81.65
2017-10-28T08:37:58.796Z,82.21
2017-10-28T08:38:58.307Z,81.55
2017-10-28T08:39:59.315Z,81.74
2017-10-28T08:40:58.397Z,81.46
2017-10-28T08:41:58.568Z,81.36
2017-10-28T08:42:58.409Z,81.36
2017-10-28T08:43:58.578Z,81.74
2017-10-28T08:44:58.225Z,81.17
2017-10-28T08:45:58.709Z,81.36
2017-10-28T08:46:58.320Z,81.55
2017-10-28T08:47:58.378Z,81.46
2017-10-28T08:48:58.339Z,81.36
2017-10-28T08:49:58.268Z,81.46
2017-10-28T08:50:58.268Z,81.26
2017-10-28T08:51:58.019Z,81.07
2017-10-28T08:52:58.019Z,81.36
2017-10-28T08:53:57.991Z,81.36
2017-10-28T08:54:57.979Z,81.36
2017-10-28T08:55:58.031Z,81.74
2017-10-28T08:56:57.948Z,81.65
2017-10-28T08:57:57.948Z,81.46
2017-10-28T08:58:57.904Z,81.46
2017-10-28T08:59:57.897Z,82.12
2017-10-28T09:00:57.887Z,82.31
2017-10-28T09:01:57.907Z,81.46
2017-10-28T09:02:57.857Z,81.74
2017-10-28T09:03:57.845Z,81.84
2017-10-28T09:04:57.833Z,81.17
2017-10-28T09:05:57.868Z,81.55
2017-10-28T09:06:57.794Z,82.12
2017-10-28T09:07:57.778Z,82.12
2017-10-28T09:08:57.767Z,81.46
2017-10-28T09:09:57.765Z,81.93
2017-10-28T09:10:57.745Z,82.12
2017-10-28T09:11:57.817Z,81.26
2017-10-28T09:12:57.735Z,81.65
2017-10-28T09:13:57.692Z,81.17
2017-10-28T09:14:57.825Z,81.74
2017-10-28T09:15:59.723Z,82.12
2017-10-28T09:16:57.647Z,81.36
2017-10-28T09:17:57.791Z,81.17
2017-10-28T09:18:57.650Z,81.17
2017-10-28T09:19:57.608Z,81.17
2017-10-28T09:20:57.609Z,81.55
2017-10-28T09:21:57.596Z,81.17
2017-10-28T09:22:57.568Z,81.36
2017-10-28T09:23:57.874Z,80.98
2017-10-28T09:24:57.907Z,81.07
2017-10-28T09:25:57.532Z,80.79
2017-10-28T09:26:57.510Z,80.88
2017-10-28T09:27:57.532Z,80.60
2017-10-28T09:28:57.529Z,81.17
2017-10-28T09:29:57.627Z,81.17
2017-10-28T09:30:58.284Z,80.88
2017-10-28T09:31:57.455Z,80.88
2017-10-28T09:32:57.437Z,80.69
2017-10-28T09:34:00.243Z,80.60
2017-10-28T09:34:57.407Z,80.50
2017-10-28T09:35:57.454Z,80.50
2017-10-28T09:36:57.359Z,80.60
2017-10-28T09:37:57.361Z,80.31
2017-10-28T09:38:57.361Z,80.60
2017-10-28T09:39:57.336Z,80.31
2017-10-28T09:40:57.314Z,80.88
2017-10-28T09:41:57.338Z,80.88
2017-10-28T09:42:57.280Z,80.60
2017-10-28T09:43:57.271Z,80.79
2017-10-28T09:44:57.271Z,80.60
2017-10-28T09:45:57.232Z,80.88
2017-10-28T09:46:57.246Z,80.98
2017-10-28T09:47:57.214Z,80.79
2017-10-28T09:48:57.197Z,80.69
2017-10-28T09:49:57.177Z,80.69
2017-10-28T09:50:57.174Z,79.93
2017-10-28T09:51:57.203Z,80.69
2017-10-28T09:52:57.141Z,80.60
2017-10-28T09:53:57.126Z,80.50
2017-10-28T09:54:57.122Z,80.88
2017-10-28T09:55:57.103Z,80.69
2017-10-28T09:56:57.103Z,80.88
2017-10-28T09:57:57.127Z,80.88
2017-10-28T09:58:57.055Z,80.12
2017-10-28T09:59:57.038Z,80.22
2017-10-28T10:00:57.028Z,80.79
2017-10-28T10:01:56.999Z,80.60
2017-10-28T10:02:57.005Z,79.83
2017-10-28T10:03:57.005Z,79.74
2017-10-28T10:04:56.973Z,80.02
2017-10-28T10:05:56.959Z,80.31
2017-10-28T10:06:56.988Z,80.02
2017-10-28T10:07:56.916Z,80.02
2017-10-28T10:08:56.906Z,79.93
2017-10-28T10:09:56.905Z,79.93
2017-10-28T10:10:56.889Z,80.07
2017-10-28T10:11:56.881Z,80.50
2017-10-28T10:12:56.913Z,80.02
2017-10-28T10:13:56.852Z,80.73
2017-10-28T10:14:56.819Z,80.26
2017-10-28T10:15:56.801Z,80.12
2017-10-28T10:16:56.792Z,79.68
2017-10-28T10:17:56.775Z,80.16
2017-10-28T10:18:56.931Z,80.79
2017-10-28T10:19:56.750Z,80.92
2017-10-28T10:20:56.751Z,80.07
2017-10-28T10:21:56.735Z,79.68
2017-10-28T10:22:56.701Z,80.16
2017-10-28T10:23:56.702Z,79.78
2017-10-28T10:24:56.936Z,80.54
2017-10-28T10:25:56.659Z,79.68
2017-10-28T10:26:56.664Z,79.59
2017-10-28T10:27:56.632Z,79.78
2017-10-28T10:28:56.630Z,79.59
2017-10-28T10:29:56.610Z,79.68
2017-10-28T10:30:56.672Z,79.97
2017-10-28T10:31:56.575Z,80.07
2017-10-28T10:32:56.573Z,79.97
2017-10-28T10:34:06.291Z,79.68
2017-10-28T10:34:56.544Z,79.97
2017-10-28T10:35:56.533Z,79.59
2017-10-28T10:36:56.574Z,79.59
2017-10-28T10:37:56.504Z,79.68
2017-10-28T10:38:56.492Z,80.07
2017-10-28T10:39:56.477Z,78.92
2017-10-28T10:40:56.448Z,78.83
2017-10-28T10:41:56.434Z,79.02
2017-10-28T10:42:56.502Z,79.40
2017-10-28T10:43:56.416Z,79.59
2017-10-28T10:44:56.406Z,79.30
2017-10-28T10:45:56.378Z,79.02
2017-10-28T10:46:56.365Z,79.40
2017-10-28T10:47:56.356Z,80.16
2017-10-28T10:48:56.393Z,79.78
2017-10-28T10:49:56.318Z,79.59
2017-10-28T10:50:56.338Z,79.88
2017-10-28T10:51:56.305Z,79.97
2017-10-28T10:52:56.290Z,79.97
2017-10-28T10:53:56.268Z,79.40
2017-10-28T10:54:56.337Z,79.21
2017-10-28T10:55:56.240Z,79.59
2017-10-28T10:56:56.226Z,79.11
2017-10-28T10:57:56.221Z,79.59
2017-10-28T10:58:56.234Z,79.49
2017-10-28T10:59:56.196Z,79.30
2017-10-28T11:00:56.648Z,78.92
2017-10-28T11:01:56.174Z,79.78
2017-10-28T11:02:56.798Z,79.78
2017-10-28T11:03:56.130Z,79.49
2017-10-28T11:04:56.120Z,79.88
2017-10-28T11:05:56.925Z,79.59
2017-10-28T11:06:56.381Z,79.97
2017-10-28T11:07:56.066Z,79.49
2017-10-28T11:08:56.056Z,79.78
2017-10-28T11:09:56.059Z,79.21
2017-10-28T11:10:56.036Z,79.30
2017-10-28T11:11:56.018Z,80.07
2017-10-28T11:12:56.396Z,79.49
2017-10-28T11:13:55.987Z,79.02
2017-10-28T11:14:55.980Z,79.21
2017-10-28T11:15:55.966Z,78.83
2017-10-28T11:16:55.956Z,79.02
2017-10-28T11:17:55.928Z,79.59
2017-10-28T11:18:56.716Z,79.02
2017-10-28T11:19:55.898Z,79.59
2017-10-28T11:20:55.883Z,79.30
2017-10-28T11:21:55.881Z,79.11
2017-10-28T11:22:55.869Z,79.02
2017-10-28T11:23:55.847Z,79.11
2017-10-28T11:24:55.902Z,78.64
2017-10-28T11:25:55.831Z,78.64
2017-10-28T11:26:55.813Z,79.40
2017-10-28T11:27:55.787Z,78.92
2017-10-28T11:28:55.771Z,78.64
2017-10-28T11:29:55.770Z,79.40
2017-10-28T11:30:55.861Z,79.02
2017-10-28T11:31:55.755Z,79.11
2017-10-28T11:32:55.735Z,79.21
2017-10-28T11:33:55.701Z,78.92
2017-10-28T11:34:55.690Z,79.30
2017-10-28T11:35:55.915Z,78.25
2017-10-28T11:36:55.735Z,78.44
2017-10-28T11:37:55.645Z,78.83
2017-10-28T11:38:55.633Z,79.21
2017-10-28T11:39:55.631Z,79.02
2017-10-28T11:40:55.619Z,79.30
2017-10-28T11:41:55.601Z,79.11
2017-10-28T11:42:55.635Z,78.92
2017-10-28T11:43:55.566Z,79.40
2017-10-28T11:44:55.583Z,79.02
2017-10-28T11:45:55.535Z,79.02
2017-10-28T11:46:55.522Z,79.02
2017-10-28T11:47:55.516Z,78.35
2017-10-28T11:48:55.872Z,78.83
2017-10-28T11:49:55.478Z,79.59
2017-10-28T11:50:55.470Z,79.02
2017-10-28T11:51:55.470Z,78.73
2017-10-28T11:52:55.449Z,78.06
2017-10-28T11:53:55.436Z,78.73
2017-10-28T11:54:55.469Z,79.30
2017-10-28T11:55:55.402Z,79.11
2017-10-28T11:56:55.403Z,79.21
2017-10-28T11:57:55.500Z,79.11
2017-10-28T11:58:56.402Z,79.21
2017-10-28T11:59:55.344Z,78.83
2017-10-28T12:00:55.397Z,79.53
2017-10-28T12:01:55.962Z,79.30
2017-10-28T12:02:55.303Z,78.73
2017-10-28T12:03:55.301Z,78.92
2017-10-28T12:04:55.288Z,78.83
2017-10-28T12:05:55.518Z,78.83
2017-10-28T12:06:55.306Z,78.64
2017-10-28T12:07:55.232Z,78.64
2017-10-28T12:08:55.219Z,78.73
2017-10-28T12:09:55.202Z,79.21
2017-10-28T12:10:55.192Z,79.02
2017-10-28T12:11:55.201Z,79.21
2017-10-28T12:12:55.232Z,78.64
2017-10-28T12:13:55.150Z,79.02
2017-10-28T12:14:55.132Z,78.92
2017-10-28T12:15:55.128Z,79.02
2017-10-28T12:16:55.103Z,79.49
2017-10-28T12:17:55.101Z,79.30
2017-10-28T12:18:55.152Z,78.92
2017-10-28T12:19:55.068Z,79.30
2017-10-28T12:20:55.058Z,79.11
2017-10-28T12:21:55.052Z,79.40
2017-10-28T12:22:55.018Z,79.11
2017-10-28T12:23:55.017Z,79.11
2017-10-28T12:24:55.132Z,79.30
2017-10-28T12:25:55.004Z,79.21
2017-10-28T12:26:54.963Z,79.40
2017-10-28T12:27:54.956Z,79.11
2017-10-28T12:28:54.932Z,79.11
2017-10-28T12:29:54.922Z,79.02
2017-10-28T12:30:55.264Z,79.40
2017-10-28T12:31:54.894Z,79.68
2017-10-28T12:32:54.895Z,79.78
2017-10-28T12:33:54.877Z,79.59
2017-10-28T12:34:54.863Z,79.30
2017-10-28T12:35:54.842Z,79.49
2017-10-28T12:36:54.876Z,79.40
2017-10-28T12:37:54.822Z,79.40
2017-10-28T12:38:54.822Z,79.88
2017-10-28T12:39:54.798Z,79.88
2017-10-28T12:40:54.773Z,80.07
2017-10-28T12:41:54.766Z,80.35
2017-10-28T12:42:54.902Z,79.49
2017-10-28T12:43:54.740Z,79.68
2017-10-28T12:44:54.726Z,79.30
2017-10-28T12:45:54.711Z,79.97
2017-10-28T12:46:54.706Z,79.88
2017-10-28T12:47:54.678Z,79.97
2017-10-28T12:48:54.746Z,79.40
2017-10-28T12:49:54.647Z,80.07
2017-10-28T12:50:54.637Z,79.88
2017-10-28T12:51:54.621Z,79.97